sensor_id;sensor_type;location;lat;lon;timestamp;temperature;humidity
4637;DHT22;2331;48.806;9.140;2023-08-31T00:01:01;17.10;1.00
4637;DHT22;2331;48.806;9.140;2023-08-31T00:03:30;17.10;1.00
4637;DHT22;2331;48.806;9.140;2023-08-31T00:05:57;17.00;1.00
4637;DHT22;2331;48.806;9.140;2023-08-31T00:08:24;17.00;1.00
4637;DHT22;2331;48.806;9.140;2023-08-31T00:10:57;16.90;1.00
4637;DHT22;2331;48.806;9.140;2023-08-31T00:13:25;16.80;1.00
4637;DHT22;2331;48.806;9.140;2023-08-31T00:15:54;16.80;1.00
4637;DHT22;2331;48.806;9.140;2023-08-31T00:18:22;16.80;1.00
4637;DHT22;2331;48.806;9.140;2023-08-31T00:20:51;16.80;1.00
4637;DHT22;2331;48.806;9.140;2023-08-31T00:23:18;16.70;1.00
4637;DHT22;2331;48.806;9.140;2023-08-31T00:25:46;16.70;1.00
4637;DHT22;2331;48.806;9.140;2023-08-31T00:28:13;16.60;1.00
4637;DHT22;2331;48.806;9.140;2023-08-31T00:30:41;16.60;1.00
4637;DHT22;2331;48.806;9.140;2023-08-31T00:33:10;16.60;1.00
4637;DHT22;2331;48.806;9.140;2023-08-31T00:35:37;16.60;1.00
4637;DHT22;2331;48.806;9.140;2023-08-31T00:38:08;16.60;1.00
4637;DHT22;2331;48.806;9.140;2023-08-31T00:40:38;16.70;1.00
4637;DHT22;2331;48.806;9.140;2023-08-31T00:43:06;16.70;1.00
4637;DHT22;2331;48.806;9.140;2023-08-31T00:45:33;16.60;1.00
4637;DHT22;2331;48.806;9.140;2023-08-31T00:48:01;16.60;1.00
4637;DHT22;2331;48.806;9.140;2023-08-31T00:50:28;16.70;1.00
4637;DHT22;2331;48.806;9.140;2023-08-31T00:52:55;16.50;1.00
4637;DHT22;2331;48.806;9.140;2023-08-31T00:55:23;16.50;1.00
4637;DHT22;2331;48.806;9.140;2023-08-31T00:57:52;16.50;1.00
4637;DHT22;2331;48.806;9.140;2023-08-31T01:00:19;16.40;1.00
4637;DHT22;2331;48.806;9.140;2023-08-31T01:02:53;16.40;1.00
4637;DHT22;2331;48.806;9.140;2023-08-31T01:05:33;16.40;1.00
4637;DHT22;2331;48.806;9.140;2023-08-31T01:08:07;16.50;1.00
4637;DHT22;2331;48.806;9.140;2023-08-31T01:10:45;16.60;1.00
4637;DHT22;2331;48.806;9.140;2023-08-31T01:13:15;16.40;1.00
4637;DHT22;2331;48.806;9.140;2023-08-31T01:15:46;16.30;1.00
4637;DHT22;2331;48.806;9.140;2023-08-31T01:18:16;16.30;1.00
4637;DHT22;2331;48.806;9.140;2023-08-31T01:20:49;16.20;1.00
4637;DHT22;2331;48.806;9.140;2023-08-31T01:23:19;16.20;1.00
4637;DHT22;2331;48.806;9.140;2023-08-31T01:25:48;16.10;1.00
4637;DHT22;2331;48.806;9.140;2023-08-31T01:28:16;16.00;1.00
4637;DHT22;2331;48.806;9.140;2023-08-31T01:30:42;15.90;1.00
4637;DHT22;2331;48.806;9.140;2023-08-31T01:33:09;15.90;1.00
4637;DHT22;2331;48.806;9.140;2023-08-31T01:35:42;15.90;1.00
4637;DHT22;2331;48.806;9.140;2023-08-31T01:38:10;15.80;1.00
4637;DHT22;2331;48.806;9.140;2023-08-31T01:40:42;15.70;1.00
4637;DHT22;2331;48.806;9.140;2023-08-31T01:43:12;15.60;1.00
4637;DHT22;2331;48.806;9.140;2023-08-31T01:45:40;15.60;1.00
4637;DHT22;2331;48.806;9.140;2023-08-31T01:48:07;15.50;1.00
4637;DHT22;2331;48.806;9.140;2023-08-31T01:50:33;15.40;1.00
4637;DHT22;2331;48.806;9.140;2023-08-31T01:53:00;15.30;1.00
4637;DHT22;2331;48.806;9.140;2023-08-31T01:55:27;15.30;1.00
4637;DHT22;2331;48.806;9.140;2023-08-31T01:57:54;15.30;1.00
4637;DHT22;2331;48.806;9.140;2023-08-31T02:00:22;15.30;1.00
4637;DHT22;2331;48.806;9.140;2023-08-31T02:02:49;15.30;1.00
4637;DHT22;2331;48.806;9.140;2023-08-31T02:05:15;15.30;1.00
4637;DHT22;2331;48.806;9.140;2023-08-31T02:07:42;15.30;1.00
4637;DHT22;2331;48.806;9.140;2023-08-31T02:10:09;15.40;1.00
4637;DHT22;2331;48.806;9.140;2023-08-31T02:12:36;15.50;1.00
4637;DHT22;2331;48.806;9.140;2023-08-31T02:15:04;15.40;1.00
4637;DHT22;2331;48.806;9.140;2023-08-31T02:17:33;15.40;1.00
4637;DHT22;2331;48.806;9.140;2023-08-31T02:20:00;15.30;1.00
4637;DHT22;2331;48.806;9.140;2023-08-31T02:22:29;15.30;1.00
4637;DHT22;2331;48.806;9.140;2023-08-31T02:24:56;15.40;1.00
4637;DHT22;2331;48.806;9.140;2023-08-31T02:27:23;15.40;1.00
4637;DHT22;2331;48.806;9.140;2023-08-31T02:29:50;15.40;1.00
4637;DHT22;2331;48.806;9.140;2023-08-31T02:32:16;15.40;1.00
4637;DHT22;2331;48.806;9.140;2023-08-31T02:34:44;15.40;1.00
4637;DHT22;2331;48.806;9.140;2023-08-31T02:37:11;15.40;1.00
4637;DHT22;2331;48.806;9.140;2023-08-31T02:39:38;15.40;1.00
4637;DHT22;2331;48.806;9.140;2023-08-31T02:42:05;15.40;1.00
4637;DHT22;2331;48.806;9.140;2023-08-31T02:44:33;15.40;1.00
4637;DHT22;2331;48.806;9.140;2023-08-31T02:47:00;15.40;1.00
4637;DHT22;2331;48.806;9.140;2023-08-31T02:49:27;15.40;1.00
4637;DHT22;2331;48.806;9.140;2023-08-31T02:51:55;15.40;1.00
4637;DHT22;2331;48.806;9.140;2023-08-31T02:54:22;15.40;1.00
4637;DHT22;2331;48.806;9.140;2023-08-31T02:56:49;15.40;1.00
4637;DHT22;2331;48.806;9.140;2023-08-31T02:59:16;15.40;1.00
4637;DHT22;2331;48.806;9.140;2023-08-31T03:01:43;15.40;1.00
4637;DHT22;2331;48.806;9.140;2023-08-31T03:04:11;15.40;1.00
4637;DHT22;2331;48.806;9.140;2023-08-31T03:06:38;15.40;1.00
4637;DHT22;2331;48.806;9.140;2023-08-31T03:09:06;15.40;1.00
4637;DHT22;2331;48.806;9.140;2023-08-31T03:11:33;15.40;1.00
4637;DHT22;2331;48.806;9.140;2023-08-31T03:14:00;15.40;1.00
4637;DHT22;2331;48.806;9.140;2023-08-31T03:16:26;15.40;1.00
4637;DHT22;2331;48.806;9.140;2023-08-31T03:18:53;15.40;1.00
4637;DHT22;2331;48.806;9.140;2023-08-31T03:21:20;15.40;1.00
4637;DHT22;2331;48.806;9.140;2023-08-31T03:23:47;15.30;1.00
4637;DHT22;2331;48.806;9.140;2023-08-31T03:26:15;15.40;1.00
4637;DHT22;2331;48.806;9.140;2023-08-31T03:28:41;15.40;1.00
4637;DHT22;2331;48.806;9.140;2023-08-31T03:31:08;15.30;1.00
4637;DHT22;2331;48.806;9.140;2023-08-31T03:33:35;15.30;1.00
4637;DHT22;2331;48.806;9.140;2023-08-31T03:36:02;15.20;1.00
4637;DHT22;2331;48.806;9.140;2023-08-31T03:38:30;15.10;1.00
4637;DHT22;2331;48.806;9.140;2023-08-31T03:40:58;15.10;1.00
4637;DHT22;2331;48.806;9.140;2023-08-31T03:43:26;15.10;1.00
4637;DHT22;2331;48.806;9.140;2023-08-31T03:45:56;15.10;1.00
4637;DHT22;2331;48.806;9.140;2023-08-31T03:48:23;15.30;1.00
4637;DHT22;2331;48.806;9.140;2023-08-31T03:50:50;15.30;1.00
4637;DHT22;2331;48.806;9.140;2023-08-31T03:53:17;15.40;1.00
4637;DHT22;2331;48.806;9.140;2023-08-31T03:55:44;15.30;1.00
4637;DHT22;2331;48.806;9.140;2023-08-31T03:58:11;15.20;1.00
4637;DHT22;2331;48.806;9.140;2023-08-31T04:00:39;15.20;1.00
4637;DHT22;2331;48.806;9.140;2023-08-31T04:03:08;15.10;1.00
4637;DHT22;2331;48.806;9.140;2023-08-31T04:05:35;15.10;1.00
4637;DHT22;2331;48.806;9.140;2023-08-31T04:08:02;15.00;1.00
4637;DHT22;2331;48.806;9.140;2023-08-31T04:10:30;14.90;1.00
4637;DHT22;2331;48.806;9.140;2023-08-31T04:12:57;14.90;1.00
4637;DHT22;2331;48.806;9.140;2023-08-31T04:15:24;14.90;1.00
4637;DHT22;2331;48.806;9.140;2023-08-31T04:17:52;14.90;1.00
4637;DHT22;2331;48.806;9.140;2023-08-31T04:20:19;14.90;1.00
4637;DHT22;2331;48.806;9.140;2023-08-31T04:22:45;14.90;1.00
4637;DHT22;2331;48.806;9.140;2023-08-31T04:25:12;14.90;1.00
4637;DHT22;2331;48.806;9.140;2023-08-31T04:27:39;14.90;1.00
4637;DHT22;2331;48.806;9.140;2023-08-31T04:30:07;14.90;1.00
4637;DHT22;2331;48.806;9.140;2023-08-31T04:32:34;14.90;1.00
4637;DHT22;2331;48.806;9.140;2023-08-31T04:35:02;14.90;1.00
4637;DHT22;2331;48.806;9.140;2023-08-31T04:37:30;14.90;1.00
4637;DHT22;2331;48.806;9.140;2023-08-31T04:39:57;15.00;1.00
4637;DHT22;2331;48.806;9.140;2023-08-31T04:42:24;14.90;1.00
4637;DHT22;2331;48.806;9.140;2023-08-31T04:44:51;14.90;1.00
4637;DHT22;2331;48.806;9.140;2023-08-31T04:47:18;15.00;1.00
4637;DHT22;2331;48.806;9.140;2023-08-31T04:49:44;15.10;1.00
4637;DHT22;2331;48.806;9.140;2023-08-31T04:52:13;15.00;1.00
4637;DHT22;2331;48.806;9.140;2023-08-31T04:54:39;15.00;1.00
4637;DHT22;2331;48.806;9.140;2023-08-31T04:57:07;14.90;1.00
4637;DHT22;2331;48.806;9.140;2023-08-31T04:59:33;15.00;1.00
4637;DHT22;2331;48.806;9.140;2023-08-31T05:02:00;15.00;1.00
4637;DHT22;2331;48.806;9.140;2023-08-31T05:04:27;15.10;1.00
4637;DHT22;2331;48.806;9.140;2023-08-31T05:06:56;15.00;1.00
4637;DHT22;2331;48.806;9.140;2023-08-31T05:09:24;15.00;1.00
4637;DHT22;2331;48.806;9.140;2023-08-31T05:11:52;15.00;1.00
4637;DHT22;2331;48.806;9.140;2023-08-31T05:14:19;15.00;1.00
4637;DHT22;2331;48.806;9.140;2023-08-31T05:16:46;15.00;1.00
4637;DHT22;2331;48.806;9.140;2023-08-31T05:19:15;15.00;1.00
4637;DHT22;2331;48.806;9.140;2023-08-31T05:21:41;15.00;1.00
4637;DHT22;2331;48.806;9.140;2023-08-31T05:24:08;15.00;1.00
4637;DHT22;2331;48.806;9.140;2023-08-31T05:26:36;14.90;1.00
4637;DHT22;2331;48.806;9.140;2023-08-31T05:29:03;14.90;1.00
4637;DHT22;2331;48.806;9.140;2023-08-31T05:31:30;14.90;1.00
4637;DHT22;2331;48.806;9.140;2023-08-31T05:33:57;14.90;1.00
4637;DHT22;2331;48.806;9.140;2023-08-31T05:36:24;14.90;1.00
4637;DHT22;2331;48.806;9.140;2023-08-31T05:38:51;15.00;1.00
4637;DHT22;2331;48.806;9.140;2023-08-31T05:41:18;15.00;1.00
4637;DHT22;2331;48.806;9.140;2023-08-31T05:43:46;15.00;1.00
4637;DHT22;2331;48.806;9.140;2023-08-31T05:46:12;15.00;1.00
4637;DHT22;2331;48.806;9.140;2023-08-31T05:48:39;15.00;1.00
4637;DHT22;2331;48.806;9.140;2023-08-31T05:51:06;15.00;1.00
4637;DHT22;2331;48.806;9.140;2023-08-31T05:53:33;14.90;1.00
4637;DHT22;2331;48.806;9.140;2023-08-31T05:56:00;14.90;1.00
4637;DHT22;2331;48.806;9.140;2023-08-31T05:58:30;14.90;1.00
4637;DHT22;2331;48.806;9.140;2023-08-31T06:00:59;14.90;1.00
4637;DHT22;2331;48.806;9.140;2023-08-31T06:03:26;14.80;1.00
4637;DHT22;2331;48.806;9.140;2023-08-31T06:05:53;14.80;1.00
4637;DHT22;2331;48.806;9.140;2023-08-31T06:08:20;14.80;1.00
4637;DHT22;2331;48.806;9.140;2023-08-31T06:10:46;14.80;1.00
4637;DHT22;2331;48.806;9.140;2023-08-31T06:13:13;14.70;1.00
4637;DHT22;2331;48.806;9.140;2023-08-31T06:15:40;14.80;1.00
4637;DHT22;2331;48.806;9.140;2023-08-31T06:18:08;14.80;1.00
4637;DHT22;2331;48.806;9.140;2023-08-31T06:20:34;14.70;1.00
4637;DHT22;2331;48.806;9.140;2023-08-31T06:23:02;14.70;1.00
4637;DHT22;2331;48.806;9.140;2023-08-31T06:25:28;14.80;1.00
4637;DHT22;2331;48.806;9.140;2023-08-31T06:27:55;14.90;1.00
4637;DHT22;2331;48.806;9.140;2023-08-31T06:30:22;14.90;1.00
4637;DHT22;2331;48.806;9.140;2023-08-31T06:32:48;14.90;1.00
4637;DHT22;2331;48.806;9.140;2023-08-31T06:35:17;15.00;1.00
4637;DHT22;2331;48.806;9.140;2023-08-31T06:37:45;15.10;1.00
4637;DHT22;2331;48.806;9.140;2023-08-31T06:40:12;15.20;1.00
4637;DHT22;2331;48.806;9.140;2023-08-31T06:42:39;15.20;1.00
4637;DHT22;2331;48.806;9.140;2023-08-31T06:45:07;15.20;1.00
4637;DHT22;2331;48.806;9.140;2023-08-31T06:47:34;15.40;1.00
4637;DHT22;2331;48.806;9.140;2023-08-31T06:50:02;15.40;1.00
4637;DHT22;2331;48.806;9.140;2023-08-31T06:52:30;15.50;1.00
4637;DHT22;2331;48.806;9.140;2023-08-31T06:54:57;15.50;1.00
4637;DHT22;2331;48.806;9.140;2023-08-31T06:57:25;15.60;1.00
4637;DHT22;2331;48.806;9.140;2023-08-31T06:59:52;15.60;1.00
4637;DHT22;2331;48.806;9.140;2023-08-31T07:02:20;15.70;1.00
4637;DHT22;2331;48.806;9.140;2023-08-31T07:04:47;15.70;1.00
4637;DHT22;2331;48.806;9.140;2023-08-31T07:07:15;15.80;1.00
4637;DHT22;2331;48.806;9.140;2023-08-31T07:09:44;15.80;1.00
4637;DHT22;2331;48.806;9.140;2023-08-31T07:12:10;15.80;1.00
4637;DHT22;2331;48.806;9.140;2023-08-31T07:14:37;15.90;1.00
4637;DHT22;2331;48.806;9.140;2023-08-31T07:17:04;16.00;1.00
4637;DHT22;2331;48.806;9.140;2023-08-31T07:19:31;16.00;1.00
4637;DHT22;2331;48.806;9.140;2023-08-31T07:21:58;16.00;1.00
4637;DHT22;2331;48.806;9.140;2023-08-31T07:24:25;16.10;1.00
4637;DHT22;2331;48.806;9.140;2023-08-31T07:26:53;16.10;1.00
4637;DHT22;2331;48.806;9.140;2023-08-31T07:29:20;16.20;1.00
4637;DHT22;2331;48.806;9.140;2023-08-31T07:31:47;16.20;1.00
4637;DHT22;2331;48.806;9.140;2023-08-31T07:34:13;16.20;1.00
4637;DHT22;2331;48.806;9.140;2023-08-31T07:36:40;16.30;1.00
4637;DHT22;2331;48.806;9.140;2023-08-31T07:39:07;16.40;1.00
4637;DHT22;2331;48.806;9.140;2023-08-31T07:41:34;16.40;1.00
4637;DHT22;2331;48.806;9.140;2023-08-31T07:44:03;16.40;1.00
4637;DHT22;2331;48.806;9.140;2023-08-31T07:46:29;16.40;1.00
4637;DHT22;2331;48.806;9.140;2023-08-31T07:48:56;16.50;1.00
4637;DHT22;2331;48.806;9.140;2023-08-31T07:51:23;16.60;1.00
4637;DHT22;2331;48.806;9.140;2023-08-31T07:53:51;16.60;1.00
4637;DHT22;2331;48.806;9.140;2023-08-31T07:56:18;16.70;1.00
4637;DHT22;2331;48.806;9.140;2023-08-31T07:58:45;16.70;1.00
4637;DHT22;2331;48.806;9.140;2023-08-31T08:01:13;16.80;1.00
4637;DHT22;2331;48.806;9.140;2023-08-31T08:03:39;16.80;1.00
4637;DHT22;2331;48.806;9.140;2023-08-31T08:06:06;16.90;1.00
4637;DHT22;2331;48.806;9.140;2023-08-31T08:08:34;17.00;1.00
4637;DHT22;2331;48.806;9.140;2023-08-31T08:11:00;17.00;1.00
4637;DHT22;2331;48.806;9.140;2023-08-31T08:13:28;17.10;1.00
4637;DHT22;2331;48.806;9.140;2023-08-31T08:15:54;17.10;1.00
4637;DHT22;2331;48.806;9.140;2023-08-31T08:18:23;17.20;1.00
4637;DHT22;2331;48.806;9.140;2023-08-31T08:20:50;17.20;1.00
4637;DHT22;2331;48.806;9.140;2023-08-31T08:23:17;17.30;1.00
4637;DHT22;2331;48.806;9.140;2023-08-31T08:25:44;17.30;1.00
4637;DHT22;2331;48.806;9.140;2023-08-31T08:28:10;17.40;1.00
4637;DHT22;2331;48.806;9.140;2023-08-31T08:30:37;17.40;1.00
4637;DHT22;2331;48.806;9.140;2023-08-31T08:33:04;17.40;1.00
4637;DHT22;2331;48.806;9.140;2023-08-31T08:35:32;17.50;1.00
4637;DHT22;2331;48.806;9.140;2023-08-31T08:37:59;17.50;1.00
4637;DHT22;2331;48.806;9.140;2023-08-31T08:40:26;17.50;1.00
4637;DHT22;2331;48.806;9.140;2023-08-31T08:42:53;17.50;1.00
4637;DHT22;2331;48.806;9.140;2023-08-31T08:45:24;17.60;1.00
4637;DHT22;2331;48.806;9.140;2023-08-31T08:47:51;17.70;1.00
4637;DHT22;2331;48.806;9.140;2023-08-31T08:50:20;17.80;1.00
4637;DHT22;2331;48.806;9.140;2023-08-31T08:52:50;18.00;1.00
4637;DHT22;2331;48.806;9.140;2023-08-31T08:55:18;18.00;1.00
4637;DHT22;2331;48.806;9.140;2023-08-31T08:57:46;18.10;1.00
4637;DHT22;2331;48.806;9.140;2023-08-31T09:00:14;18.20;1.00
4637;DHT22;2331;48.806;9.140;2023-08-31T09:02:41;18.30;1.00
4637;DHT22;2331;48.806;9.140;2023-08-31T09:05:08;18.30;1.00
4637;DHT22;2331;48.806;9.140;2023-08-31T09:07:35;18.30;1.00
4637;DHT22;2331;48.806;9.140;2023-08-31T09:10:05;18.40;1.00
4637;DHT22;2331;48.806;9.140;2023-08-31T09:12:36;18.40;1.00
4637;DHT22;2331;48.806;9.140;2023-08-31T09:15:05;18.50;1.00
4637;DHT22;2331;48.806;9.140;2023-08-31T09:17:39;18.50;1.00
4637;DHT22;2331;48.806;9.140;2023-08-31T09:20:07;18.50;1.00
4637;DHT22;2331;48.806;9.140;2023-08-31T09:22:34;18.60;1.00
4637;DHT22;2331;48.806;9.140;2023-08-31T09:25:01;18.70;1.00
4637;DHT22;2331;48.806;9.140;2023-08-31T09:27:30;18.80;1.00
4637;DHT22;2331;48.806;9.140;2023-08-31T09:29:58;18.80;1.00
4637;DHT22;2331;48.806;9.140;2023-08-31T09:32:25;18.80;1.00
4637;DHT22;2331;48.806;9.140;2023-08-31T09:34:52;18.90;1.00
4637;DHT22;2331;48.806;9.140;2023-08-31T09:37:19;19.00;1.00
4637;DHT22;2331;48.806;9.140;2023-08-31T09:39:45;19.00;1.00
4637;DHT22;2331;48.806;9.140;2023-08-31T09:42:12;19.10;1.00
4637;DHT22;2331;48.806;9.140;2023-08-31T09:44:45;19.00;1.00
4637;DHT22;2331;48.806;9.140;2023-08-31T09:47:13;19.00;1.00
4637;DHT22;2331;48.806;9.140;2023-08-31T09:49:41;19.00;1.00
4637;DHT22;2331;48.806;9.140;2023-08-31T09:52:09;19.00;1.00
4637;DHT22;2331;48.806;9.140;2023-08-31T09:54:36;19.00;1.00
4637;DHT22;2331;48.806;9.140;2023-08-31T09:57:05;19.00;1.00
4637;DHT22;2331;48.806;9.140;2023-08-31T09:59:32;19.00;1.00
4637;DHT22;2331;48.806;9.140;2023-08-31T10:02:01;19.00;1.00
4637;DHT22;2331;48.806;9.140;2023-08-31T10:04:29;19.00;1.00
4637;DHT22;2331;48.806;9.140;2023-08-31T10:06:58;19.10;1.00
4637;DHT22;2331;48.806;9.140;2023-08-31T10:09:25;19.10;1.00
4637;DHT22;2331;48.806;9.140;2023-08-31T10:11:54;19.20;1.00
4637;DHT22;2331;48.806;9.140;2023-08-31T10:14:22;19.10;1.00
4637;DHT22;2331;48.806;9.140;2023-08-31T10:16:49;19.10;1.00
4637;DHT22;2331;48.806;9.140;2023-08-31T10:19:19;19.20;1.00
4637;DHT22;2331;48.806;9.140;2023-08-31T10:21:46;19.30;1.00
4637;DHT22;2331;48.806;9.140;2023-08-31T10:24:13;19.20;1.00
4637;DHT22;2331;48.806;9.140;2023-08-31T10:26:39;19.30;1.00
4637;DHT22;2331;48.806;9.140;2023-08-31T10:29:06;19.20;1.00
4637;DHT22;2331;48.806;9.140;2023-08-31T10:31:51;19.20;1.00
4637;DHT22;2331;48.806;9.140;2023-08-31T10:34:34;19.30;1.00
4637;DHT22;2331;48.806;9.140;2023-08-31T10:37:01;19.30;1.00
4637;DHT22;2331;48.806;9.140;2023-08-31T10:39:37;19.40;1.00
4637;DHT22;2331;48.806;9.140;2023-08-31T10:42:04;19.40;1.00
4637;DHT22;2331;48.806;9.140;2023-08-31T10:44:31;19.50;1.00
4637;DHT22;2331;48.806;9.140;2023-08-31T10:47:00;19.50;1.00
4637;DHT22;2331;48.806;9.140;2023-08-31T10:49:31;19.50;1.00
4637;DHT22;2331;48.806;9.140;2023-08-31T10:52:15;19.60;1.00
4637;DHT22;2331;48.806;9.140;2023-08-31T10:54:43;19.60;1.00
4637;DHT22;2331;48.806;9.140;2023-08-31T10:57:10;19.70;1.00
4637;DHT22;2331;48.806;9.140;2023-08-31T10:59:43;19.80;1.00
4637;DHT22;2331;48.806;9.140;2023-08-31T11:02:10;19.80;1.00
4637;DHT22;2331;48.806;9.140;2023-08-31T11:07:32;19.80;1.00
4637;DHT22;2331;48.806;9.140;2023-08-31T11:10:09;19.80;1.00
4637;DHT22;2331;48.806;9.140;2023-08-31T11:12:36;19.80;1.00
4637;DHT22;2331;48.806;9.140;2023-08-31T11:15:04;19.80;1.00
4637;DHT22;2331;48.806;9.140;2023-08-31T11:17:31;19.80;1.00
4637;DHT22;2331;48.806;9.140;2023-08-31T11:20:00;19.90;1.00
4637;DHT22;2331;48.806;9.140;2023-08-31T11:22:27;19.90;1.00
4637;DHT22;2331;48.806;9.140;2023-08-31T11:24:56;20.00;1.00
4637;DHT22;2331;48.806;9.140;2023-08-31T11:27:23;20.00;1.00
4637;DHT22;2331;48.806;9.140;2023-08-31T11:29:50;19.90;1.00
4637;DHT22;2331;48.806;9.140;2023-08-31T11:32:17;20.00;1.00
4637;DHT22;2331;48.806;9.140;2023-08-31T11:34:44;20.00;1.00
4637;DHT22;2331;48.806;9.140;2023-08-31T11:37:13;20.10;1.00
4637;DHT22;2331;48.806;9.140;2023-08-31T11:39:42;20.10;1.00
4637;DHT22;2331;48.806;9.140;2023-08-31T11:42:10;20.20;1.00
4637;DHT22;2331;48.806;9.140;2023-08-31T11:44:37;20.20;1.00
4637;DHT22;2331;48.806;9.140;2023-08-31T11:47:04;20.30;1.00
4637;DHT22;2331;48.806;9.140;2023-08-31T11:49:31;20.30;1.00
4637;DHT22;2331;48.806;9.140;2023-08-31T11:51:58;20.40;1.00
4637;DHT22;2331;48.806;9.140;2023-08-31T11:54:26;20.50;1.00
4637;DHT22;2331;48.806;9.140;2023-08-31T11:56:53;20.60;1.00
4637;DHT22;2331;48.806;9.140;2023-08-31T11:59:21;20.70;1.00
4637;DHT22;2331;48.806;9.140;2023-08-31T12:01:50;20.70;1.00
4637;DHT22;2331;48.806;9.140;2023-08-31T12:04:20;20.60;1.00
4637;DHT22;2331;48.806;9.140;2023-08-31T12:06:50;20.70;1.00
4637;DHT22;2331;48.806;9.140;2023-08-31T12:09:20;20.70;1.00
4637;DHT22;2331;48.806;9.140;2023-08-31T12:11:50;20.80;1.00
4637;DHT22;2331;48.806;9.140;2023-08-31T12:14:22;20.80;1.00
4637;DHT22;2331;48.806;9.140;2023-08-31T12:16:50;20.80;1.00
4637;DHT22;2331;48.806;9.140;2023-08-31T12:19:17;20.80;1.00
4637;DHT22;2331;48.806;9.140;2023-08-31T12:21:45;20.80;1.00
4637;DHT22;2331;48.806;9.140;2023-08-31T12:24:12;20.90;1.00
4637;DHT22;2331;48.806;9.140;2023-08-31T12:26:40;21.00;1.00
4637;DHT22;2331;48.806;9.140;2023-08-31T12:29:07;20.90;1.00
4637;DHT22;2331;48.806;9.140;2023-08-31T12:31:36;21.00;1.00
4637;DHT22;2331;48.806;9.140;2023-08-31T12:34:03;21.10;1.00
4637;DHT22;2331;48.806;9.140;2023-08-31T12:36:32;21.20;1.00
4637;DHT22;2331;48.806;9.140;2023-08-31T12:38:59;21.30;1.00
4637;DHT22;2331;48.806;9.140;2023-08-31T12:41:27;21.40;1.00
4637;DHT22;2331;48.806;9.140;2023-08-31T12:43:54;21.40;1.00
4637;DHT22;2331;48.806;9.140;2023-08-31T12:46:20;21.40;1.00
4637;DHT22;2331;48.806;9.140;2023-08-31T12:48:48;21.40;1.00
4637;DHT22;2331;48.806;9.140;2023-08-31T12:51:16;21.40;1.00
4637;DHT22;2331;48.806;9.140;2023-08-31T12:53:43;21.40;1.00
4637;DHT22;2331;48.806;9.140;2023-08-31T12:56:10;21.30;1.00
4637;DHT22;2331;48.806;9.140;2023-08-31T12:58:37;21.30;1.00
4637;DHT22;2331;48.806;9.140;2023-08-31T13:01:04;21.30;1.00
4637;DHT22;2331;48.806;9.140;2023-08-31T13:03:31;21.30;1.00
4637;DHT22;2331;48.806;9.140;2023-08-31T13:05:59;21.30;1.00
4637;DHT22;2331;48.806;9.140;2023-08-31T13:08:26;21.20;1.00
4637;DHT22;2331;48.806;9.140;2023-08-31T13:10:53;21.40;1.00
4637;DHT22;2331;48.806;9.140;2023-08-31T13:13:20;21.40;1.00
4637;DHT22;2331;48.806;9.140;2023-08-31T13:15:47;21.40;1.00
4637;DHT22;2331;48.806;9.140;2023-08-31T13:18:14;21.40;1.00
4637;DHT22;2331;48.806;9.140;2023-08-31T13:20:48;21.50;1.00
4637;DHT22;2331;48.806;9.140;2023-08-31T13:23:16;21.60;1.00
4637;DHT22;2331;48.806;9.140;2023-08-31T13:25:43;21.70;1.00
4637;DHT22;2331;48.806;9.140;2023-08-31T13:28:10;21.80;1.00
4637;DHT22;2331;48.806;9.140;2023-08-31T13:30:37;21.90;1.00
4637;DHT22;2331;48.806;9.140;2023-08-31T13:33:04;21.90;1.00
4637;DHT22;2331;48.806;9.140;2023-08-31T13:35:31;22.00;1.00
4637;DHT22;2331;48.806;9.140;2023-08-31T13:37:58;22.00;1.00
4637;DHT22;2331;48.806;9.140;2023-08-31T13:40:26;22.20;1.00
4637;DHT22;2331;48.806;9.140;2023-08-31T13:42:54;22.30;1.00
4637;DHT22;2331;48.806;9.140;2023-08-31T13:45:22;22.20;1.00
4637;DHT22;2331;48.806;9.140;2023-08-31T13:47:49;22.30;1.00
4637;DHT22;2331;48.806;9.140;2023-08-31T13:50:16;22.20;1.00
4637;DHT22;2331;48.806;9.140;2023-08-31T13:52:43;22.20;1.00
4637;DHT22;2331;48.806;9.140;2023-08-31T13:55:10;22.20;1.00
4637;DHT22;2331;48.806;9.140;2023-08-31T13:57:38;22.10;1.00
4637;DHT22;2331;48.806;9.140;2023-08-31T14:00:06;22.20;1.00
4637;DHT22;2331;48.806;9.140;2023-08-31T14:02:35;22.20;1.00
4637;DHT22;2331;48.806;9.140;2023-08-31T14:05:02;22.20;1.00
4637;DHT22;2331;48.806;9.140;2023-08-31T14:07:29;22.10;1.00
4637;DHT22;2331;48.806;9.140;2023-08-31T14:09:56;22.10;1.00
4637;DHT22;2331;48.806;9.140;2023-08-31T14:12:23;22.10;1.00
4637;DHT22;2331;48.806;9.140;2023-08-31T14:14:52;22.00;1.00
4637;DHT22;2331;48.806;9.140;2023-08-31T14:17:20;22.00;1.00
4637;DHT22;2331;48.806;9.140;2023-08-31T14:19:47;22.00;1.00
4637;DHT22;2331;48.806;9.140;2023-08-31T14:22:13;22.00;1.00
4637;DHT22;2331;48.806;9.140;2023-08-31T14:24:40;22.00;1.00
4637;DHT22;2331;48.806;9.140;2023-08-31T14:27:07;22.00;1.00
4637;DHT22;2331;48.806;9.140;2023-08-31T14:29:34;22.00;1.00
4637;DHT22;2331;48.806;9.140;2023-08-31T14:32:03;21.80;1.00
4637;DHT22;2331;48.806;9.140;2023-08-31T14:34:30;21.80;1.00
4637;DHT22;2331;48.806;9.140;2023-08-31T14:36:57;21.80;1.00
4637;DHT22;2331;48.806;9.140;2023-08-31T14:39:26;21.70;1.00
4637;DHT22;2331;48.806;9.140;2023-08-31T14:41:55;21.70;1.00
4637;DHT22;2331;48.806;9.140;2023-08-31T14:44:22;21.70;1.00
4637;DHT22;2331;48.806;9.140;2023-08-31T14:46:48;21.60;1.00
4637;DHT22;2331;48.806;9.140;2023-08-31T14:49:17;21.60;1.00
4637;DHT22;2331;48.806;9.140;2023-08-31T14:51:44;21.50;1.00
4637;DHT22;2331;48.806;9.140;2023-08-31T14:54:10;21.50;1.00
4637;DHT22;2331;48.806;9.140;2023-08-31T14:56:37;21.40;1.00
4637;DHT22;2331;48.806;9.140;2023-08-31T14:59:04;21.40;1.00
4637;DHT22;2331;48.806;9.140;2023-08-31T15:01:31;21.40;1.00
4637;DHT22;2331;48.806;9.140;2023-08-31T15:03:58;21.40;1.00
4637;DHT22;2331;48.806;9.140;2023-08-31T15:06:26;21.40;1.00
4637;DHT22;2331;48.806;9.140;2023-08-31T15:08:53;21.40;1.00
4637;DHT22;2331;48.806;9.140;2023-08-31T15:11:19;21.50;1.00
4637;DHT22;2331;48.806;9.140;2023-08-31T15:13:46;21.40;1.00
4637;DHT22;2331;48.806;9.140;2023-08-31T15:16:13;21.40;1.00
4637;DHT22;2331;48.806;9.140;2023-08-31T15:18:39;21.40;1.00
4637;DHT22;2331;48.806;9.140;2023-08-31T15:21:06;21.40;1.00
4637;DHT22;2331;48.806;9.140;2023-08-31T15:23:34;21.30;1.00
4637;DHT22;2331;48.806;9.140;2023-08-31T15:26:02;21.30;1.00
4637;DHT22;2331;48.806;9.140;2023-08-31T15:28:29;21.30;1.00
4637;DHT22;2331;48.806;9.140;2023-08-31T15:30:55;21.30;1.00
4637;DHT22;2331;48.806;9.140;2023-08-31T15:33:22;21.30;1.00
4637;DHT22;2331;48.806;9.140;2023-08-31T15:35:49;21.20;1.00
4637;DHT22;2331;48.806;9.140;2023-08-31T15:38:16;21.30;1.00
4637;DHT22;2331;48.806;9.140;2023-08-31T15:40:47;21.20;1.00
4637;DHT22;2331;48.806;9.140;2023-08-31T15:43:14;21.10;1.00
4637;DHT22;2331;48.806;9.140;2023-08-31T15:45:45;21.10;1.00
4637;DHT22;2331;48.806;9.140;2023-08-31T15:48:12;21.00;1.00
4637;DHT22;2331;48.806;9.140;2023-08-31T15:50:39;21.00;1.00
4637;DHT22;2331;48.806;9.140;2023-08-31T15:53:06;21.00;1.00
4637;DHT22;2331;48.806;9.140;2023-08-31T15:55:33;21.00;1.00
4637;DHT22;2331;48.806;9.140;2023-08-31T15:58:01;21.00;1.00
4637;DHT22;2331;48.806;9.140;2023-08-31T16:00:27;21.00;1.00
4637;DHT22;2331;48.806;9.140;2023-08-31T16:02:55;21.00;1.00
4637;DHT22;2331;48.806;9.140;2023-08-31T16:05:23;21.10;1.00
4637;DHT22;2331;48.806;9.140;2023-08-31T16:07:49;21.10;1.00
4637;DHT22;2331;48.806;9.140;2023-08-31T16:10:16;21.10;1.00
4637;DHT22;2331;48.806;9.140;2023-08-31T16:12:43;21.10;1.00
4637;DHT22;2331;48.806;9.140;2023-08-31T16:15:11;21.10;1.00
4637;DHT22;2331;48.806;9.140;2023-08-31T16:17:38;20.90;1.00
4637;DHT22;2331;48.806;9.140;2023-08-31T16:20:07;20.90;1.00
4637;DHT22;2331;48.806;9.140;2023-08-31T16:22:36;20.90;1.00